Time;durP1;ratioP1;P1;durP2;ratioP2;P2;SDS_P1;SDS_P2;PMS_P1;PMS_P2;Temp;Humidity;BMP_temperature;BMP_pressure;BME280_temperature;BME280_humidity;BME280_pressure;Samples;Min_cycle;Max_cycle;Signal;HPM_P1;HPM_P2
2022/01/17 00:01:22;;;;;;;9.30;4.10;;;;;;;;;;5036085;28;20413;-78
2022/01/17 00:03:47;;;;;;;7.43;4.17;;;1.60;99.90;;;;;;5034665;28;20420;-78
2022/01/17 00:06:13;;;;;;;7.80;4.50;;;;;;;;;;5033987;28;20441;-78
2022/01/17 00:08:42;;;;;;;6.37;3.87;;;1.60;99.90;;;;;;5035876;28;20204;-78
2022/01/17 00:11:08;;;;;;;7.03;4.20;;;1.60;99.90;;;;;;5033547;28;20260;-78
2022/01/17 00:13:34;;;;;;;8.20;3.47;;;;;;;;;;5034933;28;20161;-78
2022/01/17 00:16:09;;;;;;;6.37;3.67;;;1.60;99.90;;;;;;5032868;28;20523;-78
2022/01/17 00:21:03;;;;;;;4.70;3.17;;;1.60;99.90;;;;;;5034804;28;20427;-78
2022/01/17 00:23:29;;;;;;;5.50;3.50;;;1.60;99.90;;;;;;5033968;28;20421;-78
2022/01/17 00:25:55;;;;;;;5.13;3.50;;;;;;;;;;5033943;28;20441;-78
2022/01/17 00:28:21;;;;;;;7.83;4.30;;;;;;;;;;5034229;28;20260;-78
2022/01/17 00:30:47;;;;;;;7.83;4.07;;;;;;;;;;5034403;28;20964;-78
2022/01/17 00:33:13;;;;;;;9.33;3.97;;;;;;;;;;5034718;28;20416;-78
2022/01/17 00:35:39;;;;;;;7.90;4.40;;;;;;;;;;5032624;28;20934;-78
2022/01/17 00:38:05;;;;;;;7.00;4.00;;;;;;;;;;5034752;28;20474;-78
2022/01/17 00:40:31;;;;;;;8.67;5.43;;;1.50;99.90;;;;;;5032832;28;20412;-78
2022/01/17 00:42:57;;;;;;;6.53;4.33;;;;;;;;;;5033035;28;20421;-78
2022/01/17 00:45:30;;;;;;;7.70;4.23;;;1.40;99.90;;;;;;5032595;28;20192;-78
2022/01/17 00:47:57;;;;;;;6.90;4.50;;;1.20;99.90;;;;;;5034235;28;20179;-78
2022/01/17 00:50:24;;;;;;;6.27;3.57;;;1.30;99.90;;;;;;5036992;28;20282;-78
2022/01/17 00:52:50;;;;;;;8.43;5.10;;;1.40;99.90;;;;;;5038261;28;20524;-78
2022/01/17 00:55:15;;;;;;;10.00;5.97;;;1.50;99.90;;;;;;5036984;28;20179;-78
2022/01/17 00:57:41;;;;;;;6.07;3.90;;;1.30;99.90;;;;;;5034210;28;20191;-78
2022/01/17 01:00:08;;;;;;;8.23;4.87;;;1.30;99.90;;;;;;5032909;28;20664;-78
2022/01/17 01:02:35;;;;;;;6.33;3.97;;;1.30;99.90;;;;;;5032912;28;20215;-78
2022/01/17 01:05:01;;;;;;;13.80;6.67;;;1.40;99.90;;;;;;5033898;28;20254;-78
2022/01/17 01:07:27;;;;;;;8.53;4.80;;;1.30;99.90;;;;;;5034259;28;20297;-78
2022/01/17 01:10:02;;;;;;;8.50;4.97;;;1.30;99.90;;;;;;5034907;28;20248;-78
2022/01/17 01:12:28;;;;;;;9.10;4.97;;;1.40;99.90;;;;;;5035229;28;20198;-78
2022/01/17 01:14:55;;;;;;;9.57;4.53;;;1.30;99.90;;;;;;5035081;28;20629;-78
2022/01/17 01:17:34;;;;;;;8.37;4.07;;;1.30;99.90;;;;;;5033903;28;20264;-78
2022/01/17 01:20:30;;;;;;;6.80;4.40;;;1.30;99.90;;;;;;5032995;28;20185;-78
2022/01/17 01:28:19;;;;;;;9.83;5.23;;;1.00;99.90;;;;;;5034400;28;20562;-78
2022/01/17 01:30:48;;;;;;;8.87;4.67;;;1.00;99.90;;;;;;5033936;28;20171;-78
2022/01/17 01:33:24;;;;;;;7.93;5.13;;;1.00;99.90;;;;;;5034185;28;20190;-78
2022/01/17 01:35:57;;;;;;;6.00;3.53;;;0.80;99.90;;;;;;5035763;28;20239;-78
2022/01/17 01:38:23;;;;;;;8.90;5.53;;;0.80;99.90;;;;;;5036454;28;20220;-78
2022/01/17 01:40:48;;;;;;;6.93;4.40;;;0.70;99.90;;;;;;5037748;28;20250;-78
2022/01/17 01:43:14;;;;;;;8.13;5.17;;;0.70;99.90;;;;;;5037210;28;20223;-78
2022/01/17 01:45:40;;;;;;;9.27;5.33;;;0.60;99.90;;;;;;5035951;28;20198;-78
2022/01/17 01:48:08;;;;;;;12.20;5.30;;;0.70;99.90;;;;;;5035918;28;20172;-78
2022/01/17 01:50:34;;;;;;;7.77;4.67;;;1.60;99.90;;;;;;5036226;28;20188;-78
2022/01/17 01:52:59;;;;;;;8.03;5.13;;;0.90;99.90;;;;;;5036391;28;20186;-78
2022/01/17 01:55:26;;;;;;;8.43;5.33;;;0.80;99.90;;;;;;5037108;28;20171;-78
2022/01/17 01:57:51;;;;;;;9.13;5.57;;;0.80;99.90;;;;;;5037915;28;20179;-78
2022/01/17 02:00:18;;;;;;;9.87;5.00;;;0.70;99.90;;;;;;5036162;28;20240;-78
2022/01/17 02:02:44;;;;;;;7.87;4.60;;;0.70;99.90;;;;;;5037235;28;20241;-78
2022/01/17 02:05:10;;;;;;;11.27;5.83;;;0.70;99.90;;;;;;5041428;28;20170;-78
2022/01/17 02:07:36;;;;;;;9.83;5.80;;;0.50;99.90;;;;;;5040874;28;20258;-78
2022/01/17 02:10:04;;;;;;;9.40;5.53;;;1.00;99.90;;;;;;5041030;28;20624;-78
2022/01/17 02:12:30;;;;;;;5.67;3.60;;;0.50;99.90;;;;;;5043510;28;20186;-78
2022/01/17 02:14:56;;;;;;;12.27;5.50;;;0.40;99.90;;;;;;5038156;28;20170;-78
2022/01/17 02:17:24;;;;;;;7.03;3.83;;;0.50;99.90;;;;;;5036967;28;20660;-78
2022/01/17 02:19:57;;;;;;;10.37;6.07;;;0.40;99.90;;;;;;5036793;28;20171;-78
2022/01/17 02:22:23;;;;;;;11.80;5.90;;;0.50;99.90;;;;;;5037440;28;20742;-78
2022/01/17 02:24:48;;;;;;;11.90;6.50;;;0.50;99.90;;;;;;5035952;28;20202;-78
2022/01/17 02:27:14;;;;;;;6.10;4.13;;;0.30;99.90;;;;;;5035750;28;20548;-78
2022/01/17 02:29:40;;;;;;;9.83;6.57;;;0.40;99.90;;;;;;5036878;28;20279;-78
2022/01/17 02:32:06;;;;;;;9.67;5.13;;;0.50;99.90;;;;;;5036956;28;20177;-78
2022/01/17 02:34:32;;;;;;;11.07;6.13;;;0.40;99.90;;;;;;5037014;28;20167;-78
2022/01/17 02:36:57;;;;;;;9.57;6.07;;;0.40;99.90;;;;;;5036691;28;20255;-78
2022/01/17 02:39:23;;;;;;;10.10;5.83;;;0.40;99.90;;;;;;5035256;28;20179;-78
2022/01/17 02:41:49;;;;;;;9.47;5.33;;;0.40;99.90;;;;;;5035432;28;20180;-78
2022/01/17 02:44:16;;;;;;;9.87;5.60;;;0.40;99.90;;;;;;5035083;28;20662;-78
2022/01/17 02:46:41;;;;;;;8.00;4.57;;;0.40;99.90;;;;;;5035298;28;20202;-78
2022/01/17 02:49:08;;;;;;;8.83;5.50;;;0.90;99.90;;;;;;5036524;28;20256;-78
2022/01/17 02:51:34;;;;;;;7.67;5.07;;;0.50;99.90;;;;;;5034781;28;20190;-78
2022/01/17 02:54:02;;;;;;;9.23;5.53;;;0.50;99.90;;;;;;5034765;28;20174;-78
2022/01/17 02:56:28;;;;;;;7.77;4.57;;;0.50;99.90;;;;;;5035908;28;20196;-78
2022/01/17 02:58:54;;;;;;;8.63;5.67;;;0.50;99.90;;;;;;5035808;28;20162;-78
2022/01/17 03:01:25;;;;;;;10.00;6.03;;;0.80;99.90;;;;;;5034980;28;20189;-78
2022/01/17 03:03:51;;;;;;;7.47;4.90;;;0.50;99.90;;;;;;5034664;28;20171;-78
2022/01/17 03:06:18;;;;;;;11.67;5.27;;;0.40;99.90;;;;;;5035920;28;20226;-78
2022/01/17 03:08:45;;;;;;;7.53;4.80;;;1.00;99.90;;;;;;5035365;28;20199;-78
2022/01/17 03:11:13;;;;;;;8.83;5.10;;;0.40;99.90;;;;;;5034359;28;20183;-77
2022/01/17 03:13:39;;;;;;;9.77;6.33;;;0.40;99.90;;;;;;5033903;28;20202;-78
2022/01/17 03:16:16;;;;;;;9.27;5.47;;;0.40;99.90;;;;;;5035371;28;20447;-78
2022/01/17 03:18:52;;;;;;;8.00;5.17;;;0.50;99.90;;;;;;5034243;28;20428;-78
2022/01/17 03:21:19;;;;;;;7.83;5.30;;;1.40;99.90;;;;;;5034506;28;20415;-78
2022/01/17 03:23:47;;;;;;;9.60;5.43;;;0.50;99.90;;;;;;5035854;28;20443;-78
2022/01/17 03:26:13;;;;;;;8.07;4.87;;;0.50;99.90;;;;;;5035389;28;20433;-78
2022/01/17 03:28:39;;;;;;;6.77;2.97;;;1.60;99.90;;;;;;5036959;28;20475;-78
2022/01/17 03:31:06;;;;;;;10.80;6.17;;;0.50;99.90;;;;;;5038746;28;20535;-77
2022/01/17 03:33:32;;;;;;;8.80;5.10;;;1.30;99.90;;;;;;5034759;28;20420;-78
2022/01/17 03:35:57;;;;;;;9.60;5.33;;;0.50;99.90;;;;;;5035117;28;20425;-78
2022/01/17 03:38:28;;;;;;;8.40;4.83;;;0.60;99.90;;;;;;5035121;28;20182;-77
2022/01/17 03:40:54;;;;;;;6.83;4.37;;;0.60;99.90;;;;;;5036187;28;20533;-78
2022/01/17 03:43:22;;;;;;;10.03;6.37;;;0.60;99.90;;;;;;5035311;28;20416;-78
2022/01/17 03:45:49;;;;;;;8.67;5.13;;;0.70;99.90;;;;;;5033447;28;20455;-77
2022/01/17 03:48:15;;;;;;;5.93;3.83;;;0.70;99.90;;;;;;5032972;28;20827;-77
2022/01/17 03:50:41;;;;;;;8.30;5.40;;;0.80;99.90;;;;;;5034666;28;20411;-78
2022/01/17 03:53:07;;;;;;;10.40;5.23;;;0.80;99.90;;;;;;5033377;28;20417;-78
2022/01/17 03:55:34;;;;;;;9.37;5.23;;;0.80;99.90;;;;;;5034298;28;20819;-78
2022/01/17 03:58:01;;;;;;;9.23;5.07;;;0.80;99.90;;;;;;5033249;28;20190;-78
2022/01/17 04:00:33;;;;;;;7.57;4.63;;;0.80;99.90;;;;;;5034625;28;20421;-78
2022/01/17 04:03:01;;;;;;;11.00;5.93;;;1.00;99.90;;;;;;5033422;28;20431;-78
2022/01/17 04:05:27;;;;;;;7.20;4.50;;;0.90;99.90;;;;;;5034064;28;20433;-78
2022/01/17 04:07:52;;;;;;;7.53;5.03;;;0.90;99.90;;;;;;5034654;28;20424;-78
2022/01/17 04:10:18;;;;;;;5.27;3.40;;;1.10;99.90;;;;;;5034827;28;20233;-78
2022/01/17 04:12:44;;;;;;;8.93;4.10;;;0.90;99.90;;;;;;5032729;28;20178;-77
2022/01/17 04:15:12;;;;;;;8.07;5.83;;;0.90;99.90;;;;;;5036111;28;20235;-77
2022/01/17 04:17:41;;;;;;;6.67;4.87;;;0.90;99.90;;;;;;5033817;28;20413;-77
2022/01/17 04:20:12;;;;;;;7.07;5.30;;;0.90;99.90;;;;;;5034085;28;20886;-77
2022/01/17 04:22:43;;;;;;;6.67;4.10;;;0.90;99.90;;;;;;5032558;28;20419;-77
2022/01/17 04:25:09;;;;;;;6.73;4.30;;;0.90;99.90;;;;;;5032422;28;20430;-77
2022/01/17 04:27:35;;;;;;;7.43;4.87;;;0.90;99.90;;;;;;5032483;28;20420;-78
2022/01/17 04:30:03;;;;;;;8.13;5.47;;;0.90;99.90;;;;;;5033945;28;20788;-78
2022/01/17 04:32:28;;;;;;;4.07;3.13;;;0.90;99.90;;;;;;5033591;28;20654;-78
2022/01/17 04:34:54;;;;;;;6.30;3.50;;;0.90;99.90;;;;;;5033653;28;20496;-78
2022/01/17 04:37:20;;;;;;;8.40;5.40;;;0.90;99.90;;;;;;5032701;28;20717;-78
2022/01/17 04:39:45;;;;;;;7.83;4.63;;;1.50;99.90;;;;;;5032832;28;20208;-78
2022/01/17 04:42:12;;;;;;;6.70;4.70;;;1.10;99.90;;;;;;5032946;28;20277;-78
2022/01/17 04:47:24;;;;;;;8.60;5.47;;;0.90;99.90;;;;;;5034136;28;20439;-78
2022/01/17 04:49:50;;;;;;;7.93;4.47;;;1.00;99.90;;;;;;5033854;28;20457;-78
2022/01/17 04:52:16;;;;;;;7.30;4.47;;;1.00;99.90;;;;;;5032571;28;20218;-78
2022/01/17 04:54:43;;;;;;;6.47;4.30;;;1.00;99.90;;;;;;5032760;28;20170;-78
2022/01/17 04:57:11;;;;;;;7.63;4.87;;;1.10;99.90;;;;;;5032603;28;20303;-78
2022/01/17 04:59:39;;;;;;;8.20;4.90;;;1.30;99.90;;;;;;5034375;28;20420;-78
2022/01/17 05:02:06;;;;;;;11.93;4.87;;;1.40;99.90;;;;;;5033584;28;20470;-78
2022/01/17 05:04:31;;;;;;;7.27;4.70;;;1.20;99.90;;;;;;5031997;28;20421;-77
2022/01/17 05:06:57;;;;;;;11.13;5.87;;;1.30;99.90;;;;;;5033533;28;20436;-77
2022/01/17 05:09:23;;;;;;;9.00;5.10;;;1.70;99.90;;;;;;5034716;28;20202;-77
2022/01/17 05:11:49;;;;;;;9.63;4.93;;;1.30;99.90;;;;;;5037387;28;20261;-78
2022/01/17 05:14:14;;;;;;;5.83;4.40;;;1.60;99.90;;;;;;5040616;28;20201;-77
2022/01/17 05:16:47;;;;;;;6.83;4.00;;;1.40;99.90;;;;;;5035935;28;20193;-78
2022/01/17 05:21:56;;;;;;;7.37;4.67;;;1.50;99.90;;;;;;5037795;28;20396;-77
2022/01/17 05:24:22;;;;;;;8.50;5.70;;;1.50;99.90;;;;;;5035664;28;20420;-78
2022/01/17 05:26:48;;;;;;;6.03;4.30;;;1.50;99.90;;;;;;5037063;28;20245;-77
2022/01/17 05:29:14;;;;;;;6.87;4.93;;;;;;;;;;5035667;28;20215;-78
2022/01/17 05:31:40;;;;;;;5.10;3.87;;;;;;;;;;5037243;28;20592;-78
2022/01/17 05:34:06;;;;;;;6.23;4.10;;;1.50;99.90;;;;;;5036863;28;20499;-77
2022/01/17 05:36:31;;;;;;;7.27;4.33;;;1.50;99.90;;;;;;5037120;28;20277;-77
2022/01/17 05:38:57;;;;;;;4.93;3.60;;;1.60;99.90;;;;;;5038521;28;20202;-77
2022/01/17 05:41:23;;;;;;;5.43;3.73;;;1.50;99.90;;;;;;5038268;28;20354;-78
2022/01/17 05:43:48;;;;;;;4.87;3.93;;;1.50;99.90;;;;;;5043466;28;20178;-78
2022/01/17 05:46:14;;;;;;;5.60;3.80;;;1.60;99.90;;;;;;5039640;28;20571;-78
2022/01/17 05:48:40;;;;;;;4.40;3.70;;;1.50;99.90;;;;;;5039964;28;20675;-77
2022/01/17 05:51:06;;;;;;;5.53;4.30;;;2.70;99.90;;;;;;5037224;28;20178;-77
2022/01/17 05:53:31;;;;;;;4.77;3.83;;;1.50;99.90;;;;;;5035857;28;20189;-78
2022/01/17 05:55:57;;;;;;;6.37;4.17;;;1.50;99.90;;;;;;5035571;28;20205;-78
2022/01/17 05:58:23;;;;;;;3.47;2.33;;;1.40;99.90;;;;;;5037004;28;20197;-78
2022/01/17 06:00:49;;;;;;;5.50;3.53;;;1.40;99.90;;;;;;5037195;28;20182;-78
2022/01/17 06:03:15;;;;;;;6.40;3.33;;;1.50;99.90;;;;;;5035967;28;20554;-78
2022/01/17 06:05:41;;;;;;;5.30;3.40;;;1.40;99.90;;;;;;5036589;28;20436;-78
2022/01/17 06:08:07;;;;;;;5.40;3.97;;;1.40;99.90;;;;;;5036042;28;20178;-78
2022/01/17 06:10:33;;;;;;;4.90;3.60;;;1.40;99.90;;;;;;5036970;28;20710;-78
2022/01/17 06:13:01;;;;;;;7.73;4.47;;;1.40;99.90;;;;;;5035587;28;20182;-78
2022/01/17 06:15:27;;;;;;;8.00;4.27;;;1.40;99.90;;;;;;5036029;28;20524;-78
2022/01/17 06:17:53;;;;;;;5.30;4.17;;;1.50;99.90;;;;;;5037534;28;20500;-78
2022/01/17 06:20:19;;;;;;;7.87;4.70;;;1.40;99.90;;;;;;5034898;28;20630;-78
2022/01/17 06:22:45;;;;;;;9.67;4.73;;;1.40;99.90;;;;;;5036424;28;20176;-78
2022/01/17 06:25:11;;;;;;;7.93;4.53;;;1.50;99.90;;;;;;5035289;28;20652;-78
2022/01/17 06:27:36;;;;;;;6.83;4.30;;;1.50;99.90;;;;;;5037252;28;20183;-78
2022/01/17 06:30:03;;;;;;;6.80;4.93;;;1.50;99.90;;;;;;5035457;28;20200;-78
2022/01/17 06:32:30;;;;;;;6.40;4.03;;;1.50;99.90;;;;;;5035324;28;20270;-78
2022/01/17 06:34:57;;;;;;;7.40;4.53;;;1.50;99.90;;;;;;5036236;28;20179;-78
2022/01/17 06:37:23;;;;;;;8.63;4.30;;;1.50;99.90;;;;;;5035051;28;20211;-78
2022/01/17 06:39:49;;;;;;;7.93;4.30;;;1.50;99.90;;;;;;5036228;28;20188;-78
2022/01/17 06:42:15;;;;;;;6.93;4.40;;;1.50;99.90;;;;;;5034343;28;20669;-78
2022/01/17 06:44:40;;;;;;;6.07;4.47;;;1.50;99.90;;;;;;5034656;28;20213;-78
2022/01/17 06:47:06;;;;;;;6.40;4.63;;;1.50;99.90;;;;;;5035627;28;20656;-78
2022/01/17 06:49:32;;;;;;;6.87;4.73;;;1.50;99.90;;;;;;5035963;28;20236;-78
2022/01/17 06:51:58;;;;;;;8.03;4.90;;;1.50;99.90;;;;;;5036329;28;20281;-78
2022/01/17 06:54:23;;;;;;;6.83;4.67;;;1.50;99.90;;;;;;5035758;28;20182;-78
2022/01/17 06:56:49;;;;;;;11.70;5.30;;;1.60;99.90;;;;;;5034400;28;20268;-78
2022/01/17 06:59:15;;;;;;;6.80;4.73;;;1.60;99.90;;;;;;5036203;28;20171;-78
2022/01/17 07:01:42;;;;;;;9.67;5.30;;;1.60;99.90;;;;;;5035916;28;20193;-78
2022/01/17 07:04:08;;;;;;;9.07;4.80;;;2.00;99.90;;;;;;5034152;28;20186;-78
2022/01/17 07:06:34;;;;;;;9.53;4.87;;;1.60;99.90;;;;;;5036964;28;20441;-79
2022/01/17 07:09:00;;;;;;;5.90;4.50;;;1.60;99.90;;;;;;5038134;28;20783;-79
2022/01/17 07:11:26;;;;;;;6.13;4.60;;;1.60;99.90;;;;;;5038631;28;20197;-79
2022/01/17 07:13:52;;;;;;;6.07;4.23;;;1.60;99.90;;;;;;5038482;28;20791;-79
2022/01/17 07:16:19;;;;;;;5.07;4.23;;;1.60;99.90;;;;;;5036461;28;20656;-79
2022/01/17 07:18:44;;;;;;;11.40;5.23;;;1.60;99.90;;;;;;5039493;28;20408;-79
2022/01/17 07:21:10;;;;;;;5.27;4.03;;;1.60;99.90;;;;;;5039902;28;20428;-79
2022/01/17 07:23:36;;;;;;;7.73;4.87;;;1.60;99.90;;;;;;5037609;28;20186;-79
2022/01/17 07:26:02;;;;;;;8.23;5.23;;;1.60;99.90;;;;;;5037124;28;20276;-78
2022/01/17 07:28:28;;;;;;;8.47;5.27;;;1.70;99.90;;;;;;5037762;28;20192;-79
2022/01/17 07:30:54;;;;;;;7.97;3.77;;;1.70;99.90;;;;;;5036373;28;20193;-78
2022/01/17 07:33:21;;;;;;;8.50;5.53;;;1.70;99.90;;;;;;5038376;28;20178;-79
2022/01/17 07:35:48;;;;;;;27.27;11.63;;;1.80;99.90;;;;;;5038100;28;20186;-79
2022/01/17 07:38:15;;;;;;;6.20;4.33;;;1.80;99.90;;;;;;5038237;28;20175;-79
2022/01/17 07:40:43;;;;;;;7.23;4.17;;;1.80;99.90;;;;;;5034810;28;20182;-79
2022/01/17 07:43:11;;;;;;;7.43;4.40;;;1.80;99.90;;;;;;5036420;28;20936;-78
2022/01/17 07:45:44;;;;;;;7.27;5.33;;;1.80;99.90;;;;;;5044190;28;20499;-78
2022/01/17 07:48:33;;;;;;;9.93;5.57;;;;;;;;;;5041901;28;20467;-78
2022/01/17 07:50:57;;;;;;;8.53;5.63;;;1.90;99.90;;;;;;5035303;28;20417;-78
2022/01/17 07:53:22;;;;;;;7.13;4.83;;;1.90;99.90;;;;;;5036628;28;20224;-78
2022/01/17 07:55:48;;;;;;;7.93;4.83;;;1.90;99.90;;;;;;5036613;28;20254;-78
2022/01/17 07:58:14;;;;;;;6.27;4.77;;;3.30;99.90;;;;;;5036858;28;20222;-78
2022/01/17 08:00:39;;;;;;;7.37;5.07;;;1.90;99.90;;;;;;5038508;28;20632;-78
2022/01/17 08:03:06;;;;;;;6.37;4.53;;;1.90;99.90;;;;;;5036590;28;20177;-79
2022/01/17 08:05:33;;;;;;;7.87;4.77;;;1.90;99.90;;;;;;5035309;28;20285;-79
2022/01/17 08:07:58;;;;;;;7.17;4.70;;;1.90;99.90;;;;;;5036634;28;20661;-79
2022/01/17 08:10:24;;;;;;;7.63;5.03;;;1.90;99.90;;;;;;5036409;28;20276;-79
2022/01/17 08:12:51;;;;;;;8.27;5.50;;;2.00;99.90;;;;;;5036859;28;20197;-79
2022/01/17 08:15:17;;;;;;;8.57;5.57;;;2.00;99.90;;;;;;5036323;28;20178;-79
2022/01/17 08:17:45;;;;;;;7.00;4.33;;;2.00;99.90;;;;;;5035355;28;20174;-78
2022/01/17 08:20:11;;;;;;;11.13;5.20;;;2.00;99.90;;;;;;5036047;28;20228;-78
2022/01/17 08:22:37;;;;;;;10.53;6.50;;;2.00;99.90;;;;;;5019509;28;20218;-78
2022/01/17 08:25:04;;;;;;;6.37;4.13;;;2.00;99.90;;;;;;5034116;28;20428;-79
2022/01/17 08:27:29;;;;;;;10.90;6.47;;;2.00;99.90;;;;;;5035368;28;20190;-79
2022/01/17 08:29:55;;;;;;;7.40;4.83;;;2.00;99.90;;;;;;5034829;28;20857;-79
2022/01/17 08:32:22;;;;;;;11.77;6.20;;;2.10;99.90;;;;;;5034574;28;20536;-79
2022/01/17 08:34:47;;;;;;;10.20;5.87;;;2.00;99.90;;;;;;5035267;28;20240;-79
2022/01/17 08:37:13;;;;;;;8.43;6.10;;;2.10;99.90;;;;;;5034770;28;20815;-79
2022/01/17 08:39:38;;;;;;;8.90;4.80;;;2.10;99.90;;;;;;5034669;28;20639;-79
2022/01/17 08:42:10;;;;;;;16.67;7.90;;;2.10;99.90;;;;;;5036324;28;20178;-79
2022/01/17 08:44:37;;;;;;;15.10;8.07;;;2.10;99.90;;;;;;5034244;28;20262;-79
2022/01/17 08:47:03;;;;;;;9.73;6.03;;;2.20;99.90;;;;;;5035347;28;20208;-79
2022/01/17 08:49:28;;;;;;;7.80;4.87;;;2.20;99.90;;;;;;5035140;28;20632;-79
2022/01/17 08:51:54;;;;;;;11.90;6.67;;;2.20;99.90;;;;;;5036166;28;20178;-79
2022/01/17 08:54:20;;;;;;;10.07;6.53;;;2.20;99.90;;;;;;5031785;28;20209;-80
2022/01/17 08:56:45;;;;;;;9.43;6.17;;;2.30;99.90;;;;;;5033891;28;20697;-79
2022/01/17 08:59:11;;;;;;;17.30;11.53;;;2.20;99.90;;;;;;5036164;28;20540;-78
2022/01/17 09:01:37;;;;;;;10.57;7.10;;;2.20;99.90;;;;;;5033638;28;20185;-80
2022/01/17 09:04:02;;;;;;;9.67;5.57;;;2.30;99.90;;;;;;5033863;28;20174;-79
2022/01/17 09:06:28;;;;;;;12.60;8.20;;;2.20;99.90;;;;;;5035001;28;20256;-78
2022/01/17 09:08:54;;;;;;;13.83;8.93;;;2.20;99.90;;;;;;5034068;28;20216;-79
2022/01/17 09:11:20;;;;;;;8.60;5.63;;;2.20;99.90;;;;;;5035269;28;20196;-78
2022/01/17 09:13:47;;;;;;;10.40;7.37;;;2.30;99.90;;;;;;5035660;28;20415;-78
2022/01/17 09:16:13;;;;;;;12.70;9.43;;;2.30;99.90;;;;;;5033756;28;20281;-78
2022/01/17 09:18:39;;;;;;;13.83;9.47;;;2.40;99.90;;;;;;5035263;28;20187;-79
2022/01/17 09:21:05;;;;;;;11.60;6.97;;;2.40;99.90;;;;;;5037885;28;20174;-79
2022/01/17 09:23:31;;;;;;;9.37;6.63;;;2.40;99.90;;;;;;5034354;28;20537;-79
2022/01/17 09:25:57;;;;;;;27.80;15.87;;;2.40;99.90;;;;;;5032576;28;20259;-78
2022/01/17 09:28:23;;;;;;;17.53;9.27;;;2.50;99.90;;;;;;5034861;28;20643;-79
2022/01/17 09:30:50;;;;;;;13.33;7.60;;;2.60;99.90;;;;;;5035476;28;20202;-79
2022/01/17 09:33:15;;;;;;;9.23;4.50;;;2.70;99.90;;;;;;5044332;28;20263;-78
2022/01/17 09:35:41;;;;;;;8.83;4.27;;;2.70;99.90;;;;;;5044158;28;20604;-78
2022/01/17 09:38:07;;;;;;;8.10;5.30;;;2.80;99.90;;;;;;5045187;28;20171;-79
2022/01/17 09:40:33;;;;;;;15.40;9.90;;;2.80;99.90;;;;;;5035240;28;20174;-79
2022/01/17 09:43:02;;;;;;;31.63;17.47;;;2.90;99.90;;;;;;5036105;28;20178;-78
2022/01/17 09:45:28;;;;;;;15.07;8.80;;;3.00;99.90;;;;;;5034645;28;20209;-80
2022/01/17 09:47:53;;;;;;;16.53;8.57;;;2.90;99.90;;;;;;5034374;28;20640;-79
2022/01/17 09:50:31;;;;;;;8.00;5.70;;;3.00;99.90;;;;;;5034933;28;20209;-79
2022/01/17 09:52:58;;;;;;;11.17;6.83;;;3.20;99.90;;;;;;5035979;28;20146;-79
2022/01/17 09:55:29;;;;;;;25.43;14.83;;;3.20;99.90;;;;;;5036595;28;20174;-80
2022/01/17 09:58:04;;;;;;;17.30;9.07;;;3.30;99.90;;;;;;5037464;28;20581;-79
2022/01/17 10:00:37;;;;;;;44.80;23.87;;;3.40;99.90;;;;;;5039888;28;20194;-78
2022/01/17 10:03:06;;;;;;;18.60;12.07;;;3.40;99.90;;;;;;5038861;28;20646;-79
2022/01/17 10:05:33;;;;;;;14.27;10.03;;;3.40;99.90;;;;;;5038443;28;20805;-78
2022/01/17 10:08:16;;;;;;;70.47;37.83;;;3.40;99.90;;;;;;5037223;28;20682;-79
2022/01/17 10:10:54;;;;;;;20.10;11.43;;;3.40;99.90;;;;;;5039087;28;20198;-78
2022/01/17 10:13:24;;;;;;;19.03;12.63;;;3.60;99.90;;;;;;5037891;28;20252;-79
2022/01/17 10:16:20;;;;;;;14.07;8.80;;;3.50;99.90;;;;;;5042833;28;20576;-78
2022/01/17 10:19:04;;;;;;;46.37;26.30;;;3.50;99.90;;;;;;5036133;28;20690;-79
2022/01/17 10:21:42;;;;;;;6.47;4.13;;;3.50;99.90;;;;;;5046938;28;20433;-78
2022/01/17 10:24:39;;;;;;;12.33;9.20;;;3.50;99.90;;;;;;5049407;28;20178;-78
2022/01/17 10:35:25;;;;;;;10.87;7.83;;;3.40;99.90;;;;;;5046731;28;20175;-78
2022/01/17 10:38:01;;;;;;;8.17;4.43;;;3.40;99.90;;;;;;5049365;28;20165;-78
2022/01/17 10:40:38;;;;;;;12.47;7.37;;;3.40;99.90;;;;;;5049530;28;20186;-78
2022/01/17 10:43:06;;;;;;;5.33;3.93;;;3.40;99.90;;;;;;5047219;28;20167;-78
2022/01/17 10:45:43;;;;;;;5.90;4.20;;;3.40;99.90;;;;;;5048029;28;20198;-78
2022/01/17 10:48:09;;;;;;;6.17;4.50;;;3.50;99.90;;;;;;5047408;28;20189;-78
2022/01/17 10:50:44;;;;;;;7.23;6.50;;;3.50;99.90;;;;;;5048699;28;20582;-77
2022/01/17 10:53:13;;;;;;;6.93;5.80;;;3.70;99.90;;;;;;5048480;28;20185;-77
2022/01/17 10:55:45;;;;;;;8.27;4.13;;;3.70;99.90;;;;;;5045726;28;20197;-78
2022/01/17 10:58:15;;;;;;;6.40;4.67;;;3.80;99.90;;;;;;5036797;28;20194;-78
2022/01/17 11:00:45;;;;;;;7.70;4.50;;;3.80;99.90;;;;;;5036609;28;20201;-78
2022/01/17 11:03:19;;;;;;;5.10;3.67;;;3.90;99.90;;;;;;5037064;28;20267;-79
2022/01/17 11:05:47;;;;;;;4.73;3.50;;;4.50;99.90;;;;;;5035814;28;20212;-79
2022/01/17 11:08:15;;;;;;;6.37;3.97;;;4.70;99.90;;;;;;5035637;28;20182;-79
2022/01/17 11:10:46;;;;;;;5.90;4.27;;;5.10;99.90;;;;;;5037440;28;20216;-78
2022/01/17 11:13:15;;;;;;;5.83;4.30;;;5.60;99.90;;;;;;5038172;28;20220;-79
2022/01/17 11:15:44;;;;;;;5.40;4.13;;;5.60;99.90;;;;;;5038636;28;20199;-79
2022/01/17 11:18:23;;;;;;;6.07;3.90;;;5.70;99.90;;;;;;5037379;28;20178;-79
2022/01/17 11:20:54;;;;;;;5.47;4.00;;;6.10;99.90;;;;;;5037464;28;20196;-79
2022/01/17 11:23:24;;;;;;;6.67;4.43;;;6.50;99.90;;;;;;5038166;28;20169;-79
2022/01/17 11:25:55;;;;;;;15.20;10.13;;;6.50;99.90;;;;;;5038590;28;20198;-79
2022/01/17 11:28:23;;;;;;;7.47;4.90;;;6.80;99.90;;;;;;5039302;28;20178;-79
2022/01/17 11:30:53;;;;;;;5.80;4.33;;;7.20;99.90;;;;;;5041963;28;20198;-79
2022/01/17 11:33:19;;;;;;;6.83;5.57;;;7.60;99.90;;;;;;5043806;28;20174;-79
2022/01/17 11:35:51;;;;;;;14.60;12.53;;;7.60;99.90;;;;;;5047000;28;20196;-79
2022/01/17 11:38:20;;;;;;;8.53;4.83;;;7.50;99.90;;;;;;5044444;28;20212;-79
2022/01/17 11:40:46;;;;;;;5.27;4.37;;;7.30;99.90;;;;;;5038463;28;20178;-79
2022/01/17 11:43:36;;;;;;;8.97;7.07;;;7.00;99.90;;;;;;5038975;28;20249;-79
2022/01/17 11:46:17;;;;;;;5.00;3.83;;;6.80;99.90;;;;;;5036421;28;20197;-79
2022/01/17 11:48:54;;;;;;;6.50;5.23;;;6.40;99.90;;;;;;5037256;28;20202;-79
2022/01/17 11:51:21;;;;;;;4.87;4.27;;;6.60;99.90;;;;;;5038971;28;20245;-79
2022/01/17 11:53:49;;;;;;;5.03;3.60;;;6.30;99.90;;;;;;5038268;28;20197;-79
2022/01/17 11:56:36;;;;;;;5.37;3.57;;;6.50;99.90;;;;;;5036264;28;20583;-79
2022/01/17 11:59:41;;;;;;;3.77;3.30;;;6.60;99.90;;;;;;5036534;28;20541;-79
2022/01/17 12:02:21;;;;;;;5.47;3.57;;;7.10;99.90;;;;;;5037742;28;20248;-79
2022/01/17 12:05:03;;;;;;;5.47;3.60;;;7.70;99.90;;;;;;5037378;28;20228;-79
2022/01/17 12:07:39;;;;;;;4.97;2.90;;;8.30;99.90;;;;;;5038229;28;20195;-79
2022/01/17 12:10:11;;;;;;;8.73;5.63;;;8.00;99.90;;;;;;5036949;28;20216;-79
2022/01/17 12:12:37;;;;;;;3.97;3.00;;;7.60;99.90;;;;;;5036740;28;20224;-79
2022/01/17 12:15:10;;;;;;;6.27;4.10;;;7.40;99.90;;;;;;5037218;28;20584;-79
2022/01/17 12:17:37;;;;;;;3.60;3.10;;;7.10;99.90;;;;;;5037424;28;20174;-79
2022/01/17 12:20:06;;;;;;;4.77;3.53;;;7.10;99.90;;;;;;5037097;28;20213;-79
2022/01/17 12:22:47;;;;;;;5.80;4.60;;;7.20;99.90;;;;;;5037338;28;20213;-79
2022/01/17 12:25:21;;;;;;;4.60;4.10;;;7.50;99.90;;;;;;5038412;28;20205;-79
2022/01/17 12:27:48;;;;;;;41.83;20.77;;;7.50;99.90;;;;;;5036934;28;20209;-79
2022/01/17 12:30:15;;;;;;;14.77;10.03;;;7.40;99.90;;;;;;5037395;28;20198;-80
2022/01/17 12:32:45;;;;;;;5.47;3.83;;;6.90;99.90;;;;;;5036995;28;20232;-78
2022/01/17 12:35:17;;;;;;;4.43;3.53;;;6.60;99.90;;;;;;5038433;28;20545;-78
2022/01/17 12:37:54;;;;;;;6.47;4.50;;;6.70;99.90;;;;;;5038547;28;20161;-78
2022/01/17 12:40:37;;;;;;;6.67;5.27;;;6.70;99.90;;;;;;5037189;28;20596;-79
2022/01/17 12:43:11;;;;;;;7.20;5.53;;;7.10;99.90;;;;;;5036766;28;20198;-79
2022/01/17 12:45:46;;;;;;;3.83;3.37;;;7.40;99.90;;;;;;5036275;28;20190;-80
2022/01/17 12:48:24;;;;;;;4.13;3.50;;;7.00;99.90;;;;;;5036918;28;20308;-79
2022/01/17 12:50:52;;;;;;;6.23;5.00;;;6.40;99.90;;;;;;5036717;28;20651;-79
2022/01/17 12:53:19;;;;;;;7.33;5.27;;;6.00;99.90;;;;;;5037087;28;20197;-80
2022/01/17 12:55:50;;;;;;;5.20;4.23;;;5.90;99.90;;;;;;5035216;28;20194;-78
2022/01/17 12:58:28;;;;;;;5.33;3.77;;;5.90;99.90;;;;;;5035967;28;20655;-79
2022/01/17 13:01:01;;;;;;;5.63;3.27;;;5.80;99.90;;;;;;5035071;28;20162;-78
2022/01/17 13:03:32;;;;;;;5.87;4.83;;;5.80;99.90;;;;;;5036947;28;20620;-79
2022/01/17 13:05:59;;;;;;;6.80;4.40;;;5.80;99.90;;;;;;5034573;28;20256;-78
2022/01/17 13:08:25;;;;;;;4.43;3.20;;;5.80;99.90;;;;;;5034682;28;20185;-78
2022/01/17 13:10:52;;;;;;;6.77;5.17;;;5.90;99.90;;;;;;5034503;28;20276;-78
2022/01/17 13:13:18;;;;;;;4.90;4.40;;;5.80;99.90;;;;;;5036189;28;20193;-79
2022/01/17 13:16:07;;;;;;;4.67;3.60;;;5.70;99.90;;;;;;5034917;28;20398;-78
2022/01/17 13:18:34;;;;;;;5.03;3.70;;;5.50;99.90;;;;;;5035354;28;20152;-78
2022/01/17 13:21:02;;;;;;;6.47;3.83;;;5.30;99.90;;;;;;5035586;28;20279;-78
2022/01/17 13:23:44;;;;;;;5.10;3.80;;;5.20;99.90;;;;;;5034300;28;20172;-78
2022/01/17 13:26:13;;;;;;;6.37;4.50;;;5.20;99.90;;;;;;5035110;28;20685;-78